sensor_id;sensor_type;location;lat;lon;timestamp;pressure;altitude;pressure_sealevel;temperature;humidity
49311;BME280;35177;45.900;5.946;2024-01-15T00:02:23;97017.41;;;0.60;nan
49311;BME280;35177;45.900;5.946;2024-01-15T00:04:48;97014.84;;;0.58;nan
49311;BME280;35177;45.900;5.946;2024-01-15T00:07:14;97029.59;;;0.59;nan
49311;BME280;35177;45.900;5.946;2024-01-15T00:09:39;97026.19;;;0.57;nan
49311;BME280;35177;45.900;5.946;2024-01-15T00:12:05;97025.22;;;0.60;nan
49311;BME280;35177;45.900;5.946;2024-01-15T00:14:31;97017.34;;;0.61;nan
49311;BME280;35177;45.900;5.946;2024-01-15T00:16:56;97017.63;;;0.54;nan
49311;BME280;35177;45.900;5.946;2024-01-15T00:19:21;97005.78;;;0.45;nan
49311;BME280;35177;45.900;5.946;2024-01-15T00:21:47;97007.16;;;0.32;nan
49311;BME280;35177;45.900;5.946;2024-01-15T00:24:13;97010.56;;;0.33;nan
49311;BME280;35177;45.900;5.946;2024-01-15T00:26:39;97015.47;;;0.42;nan
49311;BME280;35177;45.900;5.946;2024-01-15T00:29:06;97010.38;;;0.39;nan
49311;BME280;35177;45.900;5.946;2024-01-15T00:31:32;97011.34;;;0.36;nan
49311;BME280;35177;45.900;5.946;2024-01-15T00:33:57;97014.81;;;0.35;nan
49311;BME280;35177;45.900;5.946;2024-01-15T00:36:23;97014.78;;;0.37;nan
49311;BME280;35177;45.900;5.946;2024-01-15T00:38:48;97006.31;;;0.30;nan
49311;BME280;35177;45.900;5.946;2024-01-15T00:41:14;97000.59;;;0.45;nan
49311;BME280;35177;45.900;5.946;2024-01-15T00:43:40;96995.28;;;0.48;nan
49311;BME280;35177;45.900;5.946;2024-01-15T00:46:05;96996.19;;;0.47;nan
49311;BME280;35177;45.900;5.946;2024-01-15T00:48:31;97000.34;;;0.51;nan
49311;BME280;35177;45.900;5.946;2024-01-15T00:50:57;96999.22;;;0.58;nan
49311;BME280;35177;45.900;5.946;2024-01-15T00:53:22;97009.81;;;0.54;nan
49311;BME280;35177;45.900;5.946;2024-01-15T00:55:48;97011.34;;;0.59;nan
49311;BME280;35177;45.900;5.946;2024-01-15T00:58:14;97012.22;;;0.60;nan
49311;BME280;35177;45.900;5.946;2024-01-15T01:00:39;96994.19;;;0.54;nan
49311;BME280;35177;45.900;5.946;2024-01-15T01:03:05;97005.56;;;0.51;nan
49311;BME280;35177;45.900;5.946;2024-01-15T01:05:30;97006.38;;;0.53;nan
49311;BME280;35177;45.900;5.946;2024-01-15T01:07:55;97013.59;;;0.45;nan
49311;BME280;35177;45.900;5.946;2024-01-15T01:10:21;97021.31;;;0.48;nan
49311;BME280;35177;45.900;5.946;2024-01-15T01:12:46;97012.03;;;0.41;nan
49311;BME280;35177;45.900;5.946;2024-01-15T01:15:12;97022.44;;;0.41;nan
49311;BME280;35177;45.900;5.946;2024-01-15T01:17:37;97021.16;;;0.53;nan
49311;BME280;35177;45.900;5.946;2024-01-15T01:20:03;97025.94;;;0.40;nan
49311;BME280;35177;45.900;5.946;2024-01-15T01:22:31;97031.91;;;0.42;nan
49311;BME280;35177;45.900;5.946;2024-01-15T01:24:56;97036.25;;;0.43;nan
49311;BME280;35177;45.900;5.946;2024-01-15T01:27:22;97039.56;;;0.47;nan
49311;BME280;35177;45.900;5.946;2024-01-15T01:29:47;97046.47;;;0.48;nan
49311;BME280;35177;45.900;5.946;2024-01-15T01:32:12;97054.03;;;0.55;nan
49311;BME280;35177;45.900;5.946;2024-01-15T01:34:41;97052.22;;;0.57;nan
49311;BME280;35177;45.900;5.946;2024-01-15T01:37:08;97051.44;;;0.55;nan
49311;BME280;35177;45.900;5.946;2024-01-15T01:39:33;97043.63;;;0.55;nan
49311;BME280;35177;45.900;5.946;2024-01-15T01:41:59;97038.41;;;0.55;nan
49311;BME280;35177;45.900;5.946;2024-01-15T01:44:24;97040.94;;;0.57;nan
49311;BME280;35177;45.900;5.946;2024-01-15T01:46:50;97032.44;;;0.52;nan
49311;BME280;35177;45.900;5.946;2024-01-15T01:49:15;97021.50;;;0.42;nan
49311;BME280;35177;45.900;5.946;2024-01-15T01:51:41;97023.13;;;0.46;nan
49311;BME280;35177;45.900;5.946;2024-01-15T01:54:07;97032.44;;;0.52;nan
49311;BME280;35177;45.900;5.946;2024-01-15T01:56:34;97034.00;;;0.57;nan
49311;BME280;35177;45.900;5.946;2024-01-15T01:59:01;97033.94;;;0.59;nan
49311;BME280;35177;45.900;5.946;2024-01-15T02:01:29;97042.53;;;0.61;nan
49311;BME280;35177;45.900;5.946;2024-01-15T02:03:54;97044.25;;;0.62;nan
49311;BME280;35177;45.900;5.946;2024-01-15T02:06:22;97038.09;;;0.64;nan
49311;BME280;35177;45.900;5.946;2024-01-15T02:08:48;97027.66;;;0.64;nan
49311;BME280;35177;45.900;5.946;2024-01-15T02:11:13;97028.47;;;0.66;nan
49311;BME280;35177;45.900;5.946;2024-01-15T02:13:39;97020.75;;;0.63;nan
49311;BME280;35177;45.900;5.946;2024-01-15T02:16:05;97028.63;;;0.62;nan
49311;BME280;35177;45.900;5.946;2024-01-15T02:18:40;97038.25;;;0.60;nan
49311;BME280;35177;45.900;5.946;2024-01-15T02:21:05;97033.31;;;0.52;nan
49311;BME280;35177;45.900;5.946;2024-01-15T02:23:30;97030.94;;;0.46;nan
49311;BME280;35177;45.900;5.946;2024-01-15T02:25:56;97033.56;;;0.45;nan
49311;BME280;35177;45.900;5.946;2024-01-15T02:28:21;97026.69;;;0.44;nan
49311;BME280;35177;45.900;5.946;2024-01-15T02:30:47;97019.03;;;0.39;nan
49311;BME280;35177;45.900;5.946;2024-01-15T02:33:13;97016.03;;;0.50;nan
49311;BME280;35177;45.900;5.946;2024-01-15T02:35:38;97009.41;;;0.41;nan
49311;BME280;35177;45.900;5.946;2024-01-15T02:38:07;97000.81;;;0.39;nan
49311;BME280;35177;45.900;5.946;2024-01-15T02:40:33;96997.53;;;0.34;nan
49311;BME280;35177;45.900;5.946;2024-01-15T02:42:59;97001.81;;;0.35;nan
49311;BME280;35177;45.900;5.946;2024-01-15T02:45:24;97012.72;;;0.46;nan
49311;BME280;35177;45.900;5.946;2024-01-15T02:47:50;97018.47;;;0.54;nan
49311;BME280;35177;45.900;5.946;2024-01-15T02:50:15;97014.22;;;0.52;nan
49311;BME280;35177;45.900;5.946;2024-01-15T02:52:43;97011.69;;;0.50;nan
49311;BME280;35177;45.900;5.946;2024-01-15T02:55:09;97012.47;;;0.52;nan
49311;BME280;35177;45.900;5.946;2024-01-15T02:57:34;97020.34;;;0.51;nan
49311;BME280;35177;45.900;5.946;2024-01-15T03:00:00;97017.78;;;0.49;nan
49311;BME280;35177;45.900;5.946;2024-01-15T03:02:25;97014.50;;;0.44;nan
49311;BME280;35177;45.900;5.946;2024-01-15T03:04:51;97001.03;;;0.33;nan
49311;BME280;35177;45.900;5.946;2024-01-15T03:07:16;97006.91;;;0.38;nan
49311;BME280;35177;45.900;5.946;2024-01-15T03:09:42;97005.00;;;0.43;nan
49311;BME280;35177;45.900;5.946;2024-01-15T03:12:07;96994.59;;;0.43;nan
49311;BME280;35177;45.900;5.946;2024-01-15T03:14:33;96989.56;;;0.39;nan
49311;BME280;35177;45.900;5.946;2024-01-15T03:16:58;96976.81;;;0.31;nan
49311;BME280;35177;45.900;5.946;2024-01-15T03:19:25;96993.19;;;0.35;nan
49311;BME280;35177;45.900;5.946;2024-01-15T03:21:51;96992.25;;;0.36;nan
49311;BME280;35177;45.900;5.946;2024-01-15T03:24:16;96992.44;;;0.31;nan
49311;BME280;35177;45.900;5.946;2024-01-15T03:26:42;96998.88;;;0.44;nan
49311;BME280;35177;45.900;5.946;2024-01-15T03:29:07;96991.03;;;0.46;nan
49311;BME280;35177;45.900;5.946;2024-01-15T03:31:33;96994.69;;;0.40;nan
49311;BME280;35177;45.900;5.946;2024-01-15T03:33:58;96988.06;;;0.32;nan
49311;BME280;35177;45.900;5.946;2024-01-15T03:36:23;96986.84;;;0.17;nan
49311;BME280;35177;45.900;5.946;2024-01-15T03:38:49;96995.09;;;0.30;nan
49311;BME280;35177;45.900;5.946;2024-01-15T03:41:14;96999.03;;;0.40;nan
49311;BME280;35177;45.900;5.946;2024-01-15T03:43:40;96993.22;;;0.33;nan
49311;BME280;35177;45.900;5.946;2024-01-15T03:46:05;96978.41;;;0.35;nan
49311;BME280;35177;45.900;5.946;2024-01-15T03:48:31;96974.13;;;0.34;nan
49311;BME280;35177;45.900;5.946;2024-01-15T03:50:56;96972.06;;;0.42;nan
49311;BME280;35177;45.900;5.946;2024-01-15T03:53:22;96973.84;;;0.42;nan
49311;BME280;35177;45.900;5.946;2024-01-15T03:55:47;96979.06;;;0.42;nan
49311;BME280;35177;45.900;5.946;2024-01-15T03:58:13;96982.47;;;0.42;nan
49311;BME280;35177;45.900;5.946;2024-01-15T04:00:40;96971.28;;;0.40;nan
49311;BME280;35177;45.900;5.946;2024-01-15T04:03:05;96971.44;;;0.36;nan
49311;BME280;35177;45.900;5.946;2024-01-15T04:05:31;96972.84;;;0.21;nan
49311;BME280;35177;45.900;5.946;2024-01-15T04:07:56;96962.31;;;0.24;nan
49311;BME280;35177;45.900;5.946;2024-01-15T04:10:22;96956.00;;;0.31;nan
49311;BME280;35177;45.900;5.946;2024-01-15T04:12:47;96961.19;;;0.31;nan
49311;BME280;35177;45.900;5.946;2024-01-15T04:15:13;96960.88;;;0.40;nan
49311;BME280;35177;45.900;5.946;2024-01-15T04:17:38;96952.09;;;0.43;nan
49311;BME280;35177;45.900;5.946;2024-01-15T04:20:04;96953.75;;;0.45;nan
49311;BME280;35177;45.900;5.946;2024-01-15T04:22:30;96945.84;;;0.48;nan
49311;BME280;35177;45.900;5.946;2024-01-15T04:24:55;96938.13;;;0.45;nan
49311;BME280;35177;45.900;5.946;2024-01-15T04:27:21;96932.03;;;0.46;nan
49311;BME280;35177;45.900;5.946;2024-01-15T04:29:46;96943.34;;;0.45;nan
49311;BME280;35177;45.900;5.946;2024-01-15T04:32:12;96950.13;;;0.49;nan
49311;BME280;35177;45.900;5.946;2024-01-15T04:34:37;96958.38;;;0.60;nan
49311;BME280;35177;45.900;5.946;2024-01-15T04:37:03;96961.97;;;0.58;nan
49311;BME280;35177;45.900;5.946;2024-01-15T04:39:29;96956.00;;;0.54;nan
49311;BME280;35177;45.900;5.946;2024-01-15T04:41:54;96949.16;;;0.52;nan
49311;BME280;35177;45.900;5.946;2024-01-15T04:44:19;96944.75;;;0.54;nan
49311;BME280;35177;45.900;5.946;2024-01-15T04:46:45;96955.94;;;0.56;nan
49311;BME280;35177;45.900;5.946;2024-01-15T04:49:11;96955.03;;;0.57;nan
49311;BME280;35177;45.900;5.946;2024-01-15T04:51:36;96951.59;;;0.56;nan
49311;BME280;35177;45.900;5.946;2024-01-15T04:54:02;96944.53;;;0.60;nan
49311;BME280;35177;45.900;5.946;2024-01-15T04:56:27;96939.88;;;0.45;nan
49311;BME280;35177;45.900;5.946;2024-01-15T04:58:53;96935.47;;;0.47;nan
49311;BME280;35177;45.900;5.946;2024-01-15T05:01:18;96920.00;;;0.42;nan
49311;BME280;35177;45.900;5.946;2024-01-15T05:03:44;96931.97;;;0.48;nan
49311;BME280;35177;45.900;5.946;2024-01-15T05:06:09;96932.47;;;0.57;nan
49311;BME280;35177;45.900;5.946;2024-01-15T05:08:34;96938.84;;;0.49;nan
49311;BME280;35177;45.900;5.946;2024-01-15T05:11:00;96930.16;;;0.50;nan
49311;BME280;35177;45.900;5.946;2024-01-15T05:13:25;96932.59;;;0.54;nan
49311;BME280;35177;45.900;5.946;2024-01-15T05:15:51;96937.50;;;0.39;nan
49311;BME280;35177;45.900;5.946;2024-01-15T05:18:16;96920.34;;;0.33;nan
49311;BME280;35177;45.900;5.946;2024-01-15T05:20:42;96931.44;;;0.38;nan
49311;BME280;35177;45.900;5.946;2024-01-15T05:23:08;96925.00;;;0.48;nan
49311;BME280;35177;45.900;5.946;2024-01-15T05:25:33;96931.00;;;0.50;nan
49311;BME280;35177;45.900;5.946;2024-01-15T05:27:58;96920.25;;;0.59;nan
49311;BME280;35177;45.900;5.946;2024-01-15T05:30:24;96902.81;;;0.61;nan
49311;BME280;35177;45.900;5.946;2024-01-15T05:32:49;96913.34;;;0.58;nan
49311;BME280;35177;45.900;5.946;2024-01-15T05:35:15;96908.97;;;0.59;nan
49311;BME280;35177;45.900;5.946;2024-01-15T05:37:44;96890.88;;;0.56;nan
49311;BME280;35177;45.900;5.946;2024-01-15T05:40:11;96892.50;;;0.58;nan
49311;BME280;35177;45.900;5.946;2024-01-15T05:42:37;96894.22;;;0.59;nan
49311;BME280;35177;45.900;5.946;2024-01-15T05:45:03;96882.84;;;0.62;nan
49311;BME280;35177;45.900;5.946;2024-01-15T05:47:30;96889.00;;;0.59;nan
49311;BME280;35177;45.900;5.946;2024-01-15T05:49:56;96884.53;;;0.63;nan
49311;BME280;35177;45.900;5.946;2024-01-15T05:52:22;96895.00;;;0.61;nan
49311;BME280;35177;45.900;5.946;2024-01-15T05:54:49;96889.63;;;0.66;nan
49311;BME280;35177;45.900;5.946;2024-01-15T05:57:14;96893.19;;;0.63;nan
49311;BME280;35177;45.900;5.946;2024-01-15T05:59:40;96883.69;;;0.62;nan
49311;BME280;35177;45.900;5.946;2024-01-15T06:02:05;96887.63;;;0.73;nan
49311;BME280;35177;45.900;5.946;2024-01-15T06:04:31;96888.66;;;0.68;nan
49311;BME280;35177;45.900;5.946;2024-01-15T06:06:56;96887.63;;;0.73;nan
49311;BME280;35177;45.900;5.946;2024-01-15T06:09:22;96890.38;;;0.69;nan
49311;BME280;35177;45.900;5.946;2024-01-15T06:11:47;96892.41;;;0.61;nan
49311;BME280;35177;45.900;5.946;2024-01-15T06:14:12;96885.06;;;0.49;nan
49311;BME280;35177;45.900;5.946;2024-01-15T06:16:38;96896.50;;;0.45;nan
49311;BME280;35177;45.900;5.946;2024-01-15T06:19:03;96891.97;;;0.50;nan
49311;BME280;35177;45.900;5.946;2024-01-15T06:21:29;96881.72;;;0.46;nan
49311;BME280;35177;45.900;5.946;2024-01-15T06:23:54;96892.25;;;0.43;nan
49311;BME280;35177;45.900;5.946;2024-01-15T06:26:24;96889.66;;;0.43;nan
49311;BME280;35177;45.900;5.946;2024-01-15T06:28:50;96876.47;;;0.47;nan
49311;BME280;35177;45.900;5.946;2024-01-15T06:31:15;96879.81;;;0.51;nan
49311;BME280;35177;45.900;5.946;2024-01-15T06:33:41;96879.97;;;0.46;nan
49311;BME280;35177;45.900;5.946;2024-01-15T06:36:06;96885.97;;;0.48;nan
49311;BME280;35177;45.900;5.946;2024-01-15T06:38:32;96885.84;;;0.51;nan
49311;BME280;35177;45.900;5.946;2024-01-15T06:40:57;96883.31;;;0.50;nan
49311;BME280;35177;45.900;5.946;2024-01-15T06:43:23;96872.81;;;0.51;nan
49311;BME280;35177;45.900;5.946;2024-01-15T06:45:48;96884.16;;;0.50;nan
49311;BME280;35177;45.900;5.946;2024-01-15T06:48:15;96878.94;;;0.50;nan
49311;BME280;35177;45.900;5.946;2024-01-15T06:50:44;96886.47;;;0.58;nan
49311;BME280;35177;45.900;5.946;2024-01-15T06:53:10;96881.09;;;0.62;nan
49311;BME280;35177;45.900;5.946;2024-01-15T06:55:36;96874.47;;;0.54;nan
49311;BME280;35177;45.900;5.946;2024-01-15T06:58:01;96885.41;;;0.40;nan
49311;BME280;35177;45.900;5.946;2024-01-15T07:00:27;96893.09;;;0.43;nan
49311;BME280;35177;45.900;5.946;2024-01-15T07:02:53;96901.59;;;0.48;nan
49311;BME280;35177;45.900;5.946;2024-01-15T07:05:20;96890.41;;;0.46;nan
49311;BME280;35177;45.900;5.946;2024-01-15T07:07:46;96891.69;;;0.58;nan
49311;BME280;35177;45.900;5.946;2024-01-15T07:10:11;96885.47;;;0.60;nan
49311;BME280;35177;45.900;5.946;2024-01-15T07:12:37;96883.13;;;0.54;nan
49311;BME280;35177;45.900;5.946;2024-01-15T07:15:02;96884.19;;;0.49;nan
49311;BME280;35177;45.900;5.946;2024-01-15T07:17:29;96900.91;;;0.43;nan
49311;BME280;35177;45.900;5.946;2024-01-15T07:19:55;96905.31;;;0.41;nan
49311;BME280;35177;45.900;5.946;2024-01-15T07:22:20;96913.13;;;0.41;nan
49311;BME280;35177;45.900;5.946;2024-01-15T07:24:46;96918.88;;;0.49;nan
49311;BME280;35177;45.900;5.946;2024-01-15T07:27:11;96912.72;;;0.52;nan
49311;BME280;35177;45.900;5.946;2024-01-15T07:29:37;96907.66;;;0.70;nan
49311;BME280;35177;45.900;5.946;2024-01-15T07:32:03;96910.09;;;0.75;nan
49311;BME280;35177;45.900;5.946;2024-01-15T07:34:29;96909.41;;;0.70;nan
49311;BME280;35177;45.900;5.946;2024-01-15T07:36:54;96909.13;;;0.78;nan
49311;BME280;35177;45.900;5.946;2024-01-15T07:39:20;96909.91;;;0.80;nan
49311;BME280;35177;45.900;5.946;2024-01-15T07:41:45;96903.81;;;0.81;nan
49311;BME280;35177;45.900;5.946;2024-01-15T07:44:11;96895.31;;;0.76;nan
49311;BME280;35177;45.900;5.946;2024-01-15T07:46:36;96897.94;;;0.76;nan
49311;BME280;35177;45.900;5.946;2024-01-15T07:49:02;96896.84;;;0.81;nan
49311;BME280;35177;45.900;5.946;2024-01-15T07:51:27;96902.00;;;0.83;nan
49311;BME280;35177;45.900;5.946;2024-01-15T07:53:53;96902.00;;;0.83;nan
49311;BME280;35177;45.900;5.946;2024-01-15T07:56:20;96891.50;;;0.84;nan
49311;BME280;35177;45.900;5.946;2024-01-15T07:58:46;96897.31;;;0.91;nan
49311;BME280;35177;45.900;5.946;2024-01-15T08:01:12;96897.94;;;0.97;nan
49311;BME280;35177;45.900;5.946;2024-01-15T08:03:37;96908.03;;;1.05;nan
49311;BME280;35177;45.900;5.946;2024-01-15T08:06:04;96902.03;;;1.03;nan
49311;BME280;35177;45.900;5.946;2024-01-15T08:08:30;96899.41;;;1.04;nan
49311;BME280;35177;45.900;5.946;2024-01-15T08:10:55;96901.94;;;1.06;nan
49311;BME280;35177;45.900;5.946;2024-01-15T08:13:21;96895.94;;;1.04;nan
49311;BME280;35177;45.900;5.946;2024-01-15T08:15:46;96901.03;;;1.07;nan
49311;BME280;35177;45.900;5.946;2024-01-15T08:18:12;96901.88;;;1.07;nan
49311;BME280;35177;45.900;5.946;2024-01-15T08:20:38;96900.19;;;1.06;nan
49311;BME280;35177;45.900;5.946;2024-01-15T08:23:04;96911.38;;;1.08;nan
49311;BME280;35177;45.900;5.946;2024-01-15T08:25:29;96908.78;;;1.08;nan
49311;BME280;35177;45.900;5.946;2024-01-15T08:27:56;96918.16;;;1.12;nan
49311;BME280;35177;45.900;5.946;2024-01-15T08:30:22;96909.38;;;1.15;nan
49311;BME280;35177;45.900;5.946;2024-01-15T08:32:51;96898.97;;;1.15;nan
49311;BME280;35177;45.900;5.946;2024-01-15T08:35:16;96902.34;;;1.17;nan
49311;BME280;35177;45.900;5.946;2024-01-15T08:37:42;96900.66;;;1.16;nan
49311;BME280;35177;45.900;5.946;2024-01-15T08:40:08;96899.75;;;1.17;nan
49311;BME280;35177;45.900;5.946;2024-01-15T08:42:33;96891.72;;;1.21;nan
49311;BME280;35177;45.900;5.946;2024-01-15T08:44:59;96902.22;;;1.20;nan
49311;BME280;35177;45.900;5.946;2024-01-15T08:47:24;96905.25;;;1.31;nan
49311;BME280;35177;45.900;5.946;2024-01-15T08:49:50;96892.31;;;1.28;nan
49311;BME280;35177;45.900;5.946;2024-01-15T08:52:16;96904.28;;;1.33;nan
49311;BME280;35177;45.900;5.946;2024-01-15T08:54:41;96912.22;;;1.30;nan
49311;BME280;35177;45.900;5.946;2024-01-15T08:57:07;96908.63;;;1.33;nan
49311;BME280;35177;45.900;5.946;2024-01-15T08:59:32;96912.03;;;1.35;nan
49311;BME280;35177;45.900;5.946;2024-01-15T09:01:58;96918.56;;;1.45;nan
49311;BME280;35177;45.900;5.946;2024-01-15T09:04:23;96904.63;;;1.46;nan
49311;BME280;35177;45.900;5.946;2024-01-15T09:06:49;96902.06;;;1.45;nan
49311;BME280;35177;45.900;5.946;2024-01-15T09:09:15;96894.03;;;1.29;nan
49311;BME280;35177;45.900;5.946;2024-01-15T09:11:41;96895.59;;;1.33;nan
49311;BME280;35177;45.900;5.946;2024-01-15T09:14:06;96898.59;;;1.44;nan
49311;BME280;35177;45.900;5.946;2024-01-15T09:16:33;96892.31;;;1.28;nan
49311;BME280;35177;45.900;5.946;2024-01-15T09:18:58;96901.78;;;1.30;nan
49311;BME280;35177;45.900;5.946;2024-01-15T09:21:24;96897.19;;;1.37;nan
49311;BME280;35177;45.900;5.946;2024-01-15T09:23:52;96888.06;;;1.47;nan
49311;BME280;35177;45.900;5.946;2024-01-15T09:26:17;96873.34;;;1.46;nan
49311;BME280;35177;45.900;5.946;2024-01-15T09:28:43;96874.53;;;1.59;nan
49311;BME280;35177;45.900;5.946;2024-01-15T09:31:08;96880.41;;;1.64;nan
49311;BME280;35177;45.900;5.946;2024-01-15T09:33:34;96903.47;;;1.73;nan
49311;BME280;35177;45.900;5.946;2024-01-15T09:36:03;96911.94;;;1.78;nan
49311;BME280;35177;45.900;5.946;2024-01-15T09:38:29;96910.00;;;1.83;nan
49311;BME280;35177;45.900;5.946;2024-01-15T09:40:56;96909.16;;;1.83;nan
49311;BME280;35177;45.900;5.946;2024-01-15T09:43:22;96905.75;;;1.81;nan
49311;BME280;35177;45.900;5.946;2024-01-15T09:45:49;96907.50;;;1.80;nan
49311;BME280;35177;45.900;5.946;2024-01-15T09:48:15;96895.91;;;1.87;nan
49311;BME280;35177;45.900;5.946;2024-01-15T09:50:40;96901.03;;;1.89;nan
49311;BME280;35177;45.900;5.946;2024-01-15T09:53:06;96907.00;;;1.92;nan
49311;BME280;35177;45.900;5.946;2024-01-15T09:55:32;96906.91;;;1.94;nan
49311;BME280;35177;45.900;5.946;2024-01-15T09:58:01;96904.00;;;2.01;nan
49311;BME280;35177;45.900;5.946;2024-01-15T10:00:29;96896.66;;;2.09;nan
49311;BME280;35177;45.900;5.946;2024-01-15T10:02:56;96883.47;;;2.13;nan
49311;BME280;35177;45.900;5.946;2024-01-15T10:05:22;96893.72;;;2.17;nan
49311;BME280;35177;45.900;5.946;2024-01-15T10:07:48;96892.53;;;2.24;nan
49311;BME280;35177;45.900;5.946;2024-01-15T10:10:17;96894.06;;;2.28;nan
49311;BME280;35177;45.900;5.946;2024-01-15T10:12:42;96902.34;;;2.38;nan
49311;BME280;35177;45.900;5.946;2024-01-15T10:15:10;96881.75;;;2.32;nan
49311;BME280;35177;45.900;5.946;2024-01-15T10:17:38;96876.94;;;2.23;nan
49311;BME280;35177;45.900;5.946;2024-01-15T10:20:10;96883.59;;;2.30;nan
49311;BME280;35177;45.900;5.946;2024-01-15T10:22:41;96895.09;;;2.44;nan
49311;BME280;35177;45.900;5.946;2024-01-15T10:25:10;96892.03;;;2.35;nan
49311;BME280;35177;45.900;5.946;2024-01-15T10:27:36;96885.00;;;2.37;nan
49311;BME280;35177;45.900;5.946;2024-01-15T10:30:01;96863.38;;;2.15;nan
49311;BME280;35177;45.900;5.946;2024-01-15T10:32:28;96833.00;;;2.14;nan
49311;BME280;35177;45.900;5.946;2024-01-15T10:34:54;96841.81;;;2.11;nan
49311;BME280;35177;45.900;5.946;2024-01-15T10:37:20;96863.50;;;2.11;nan
49311;BME280;35177;45.900;5.946;2024-01-15T10:39:46;96880.34;;;2.25;nan
49311;BME280;35177;45.900;5.946;2024-01-15T10:42:12;96883.44;;;2.33;nan
49311;BME280;35177;45.900;5.946;2024-01-15T10:44:38;96888.41;;;2.39;nan
49311;BME280;35177;45.900;5.946;2024-01-15T10:47:04;96886.47;;;2.42;nan
49311;BME280;35177;45.900;5.946;2024-01-15T10:49:29;96886.56;;;2.41;nan
49311;BME280;35177;45.900;5.946;2024-01-15T10:51:56;96873.50;;;2.41;nan
49311;BME280;35177;45.900;5.946;2024-01-15T10:54:23;96869.19;;;2.40;nan
49311;BME280;35177;45.900;5.946;2024-01-15T10:56:50;96866.38;;;2.44;nan
49311;BME280;35177;45.900;5.946;2024-01-15T10:59:16;96861.66;;;2.52;nan
49311;BME280;35177;45.900;5.946;2024-01-15T11:01:42;96858.81;;;2.57;nan
49311;BME280;35177;45.900;5.946;2024-01-15T11:04:09;96856.78;;;2.63;nan
49311;BME280;35177;45.900;5.946;2024-01-15T11:06:45;96858.47;;;2.64;nan
49311;BME280;35177;45.900;5.946;2024-01-15T11:09:12;96849.28;;;2.74;nan
49311;BME280;35177;45.900;5.946;2024-01-15T11:11:45;96857.06;;;2.76;nan
49311;BME280;35177;45.900;5.946;2024-01-15T11:14:41;96841.44;;;2.74;nan
49311;BME280;35177;45.900;5.946;2024-01-15T11:17:10;96847.72;;;2.89;nan
49311;BME280;35177;45.900;5.946;2024-01-15T11:19:47;96842.63;;;2.86;nan
49311;BME280;35177;45.900;5.946;2024-01-15T11:25:03;96848.78;;;2.85;nan
49311;BME280;35177;45.900;5.946;2024-01-15T11:27:48;96837.97;;;2.93;nan
49311;BME280;35177;45.900;5.946;2024-01-15T11:30:16;96845.50;;;2.99;nan
49311;BME280;35177;45.900;5.946;2024-01-15T11:32:42;96856.50;;;3.05;nan
49311;BME280;35177;45.900;5.946;2024-01-15T11:35:11;96852.13;;;3.06;nan
49311;BME280;35177;45.900;5.946;2024-01-15T11:40:18;96861.25;;;2.97;nan
49311;BME280;35177;45.900;5.946;2024-01-15T11:42:48;96854.19;;;2.99;nan
49311;BME280;35177;45.900;5.946;2024-01-15T11:45:19;96843.53;;;3.04;nan
49311;BME280;35177;45.900;5.946;2024-01-15T11:48:14;96858.13;;;3.08;nan
49311;BME280;35177;45.900;5.946;2024-01-15T11:50:45;96852.34;;;3.01;nan
49311;BME280;35177;45.900;5.946;2024-01-15T11:55:45;96842.03;;;2.98;nan
49311;BME280;35177;45.900;5.946;2024-01-15T11:58:11;96843.13;;;2.94;nan
49311;BME280;35177;45.900;5.946;2024-01-15T12:00:40;96841.91;;;3.01;nan
49311;BME280;35177;45.900;5.946;2024-01-15T12:03:07;96833.06;;;3.04;nan
49311;BME280;35177;45.900;5.946;2024-01-15T12:05:37;96823.47;;;3.04;nan
49311;BME280;35177;45.900;5.946;2024-01-15T12:08:02;96823.91;;;3.12;nan
49311;BME280;35177;45.900;5.946;2024-01-15T12:10:28;96823.78;;;3.15;nan
49311;BME280;35177;45.900;5.946;2024-01-15T12:13:05;96823.41;;;3.23;nan
49311;BME280;35177;45.900;5.946;2024-01-15T12:15:31;96820.84;;;3.21;nan
49311;BME280;35177;45.900;5.946;2024-01-15T12:17:58;96822.88;;;3.33;nan
49311;BME280;35177;45.900;5.946;2024-01-15T12:20:25;96814.25;;;3.31;nan
49311;BME280;35177;45.900;5.946;2024-01-15T12:22:52;96809.25;;;3.27;nan
49311;BME280;35177;45.900;5.946;2024-01-15T12:25:17;96810.09;;;3.44;nan
49311;BME280;35177;45.900;5.946;2024-01-15T12:27:43;96815.78;;;3.35;nan
49311;BME280;35177;45.900;5.946;2024-01-15T12:30:13;96811.63;;;3.48;nan
49311;BME280;35177;45.900;5.946;2024-01-15T12:32:40;96808.94;;;3.33;nan
49311;BME280;35177;45.900;5.946;2024-01-15T12:35:06;96798.09;;;3.40;nan
49311;BME280;35177;45.900;5.946;2024-01-15T12:37:31;96806.72;;;3.42;nan
49311;BME280;35177;45.900;5.946;2024-01-15T12:39:58;96805.03;;;3.41;nan
49311;BME280;35177;45.900;5.946;2024-01-15T12:42:24;96804.31;;;3.38;nan
49311;BME280;35177;45.900;5.946;2024-01-15T12:44:49;96811.84;;;3.44;nan
49311;BME280;35177;45.900;5.946;2024-01-15T12:47:15;96816.41;;;3.40;nan
49311;BME280;35177;45.900;5.946;2024-01-15T12:49:46;96821.63;;;3.40;nan
49311;BME280;35177;45.900;5.946;2024-01-15T12:52:13;96823.19;;;3.27;nan
49311;BME280;35177;45.900;5.946;2024-01-15T12:54:38;96825.16;;;3.22;nan
49311;BME280;35177;45.900;5.946;2024-01-15T12:57:03;96820.94;;;3.37;nan
49311;BME280;35177;45.900;5.946;2024-01-15T12:59:29;96807.19;;;3.33;nan
49311;BME280;35177;45.900;5.946;2024-01-15T13:01:54;96804.66;;;3.32;nan
49311;BME280;35177;45.900;5.946;2024-01-15T13:04:24;96805.31;;;3.35;nan
49311;BME280;35177;45.900;5.946;2024-01-15T13:06:50;96802.25;;;3.44;nan
49311;BME280;35177;45.900;5.946;2024-01-15T13:09:17;96788.69;;;3.53;nan
49311;BME280;35177;45.900;5.946;2024-01-15T13:11:46;96772.84;;;3.57;nan
49311;BME280;35177;45.900;5.946;2024-01-15T13:14:12;96779.78;;;3.58;nan
49311;BME280;35177;45.900;5.946;2024-01-15T13:16:39;96790.69;;;3.48;nan
49311;BME280;35177;45.900;5.946;2024-01-15T13:19:07;96794.00;;;3.52;nan
49311;BME280;35177;45.900;5.946;2024-01-15T13:21:33;96788.69;;;3.53;nan
49311;BME280;35177;45.900;5.946;2024-01-15T13:23:58;96789.16;;;3.44;nan
49311;BME280;35177;45.900;5.946;2024-01-15T13:26:24;96771.81;;;3.43;nan
49311;BME280;35177;45.900;5.946;2024-01-15T13:28:50;96774.94;;;3.33;nan
49311;BME280;35177;45.900;5.946;2024-01-15T13:31:15;96778.88;;;3.41;nan
49311;BME280;35177;45.900;5.946;2024-01-15T13:33:41;96769.66;;;3.34;nan
49311;BME280;35177;45.900;5.946;2024-01-15T13:36:06;96756.88;;;3.28;nan